Terminal Aerodrome Forecast
Issued by NWS Jackson, MS

Home | Current Version | Previous Version | Text Only | Print | Product List | Glossary On
Versions: 1 2 3 4 5 6 7 8 9 10 11 12 13
163
FTUS44 KJAN 260520
TAFMEI
TAF
KMEI 260520Z 2606/2706 20004KT 6SM BR BKN250
     FM260800 21003KT 4SM BR BKN250
     FM261000 20005KT 4SM BR BKN015
     FM261400 19005KT P6SM OVC025
     FM261600 18006KT P6SM SCT040 BKN250=

USA.gov is the U.S. government's official web portal to all federal, state and local government web resources and services.